createdAt,value
2023-05-09T00:02:12.978Z,22.60
2023-05-09T00:04:42.826Z,22.60
2023-05-09T00:07:11.591Z,22.60
2023-05-09T00:09:40.453Z,22.60
2023-05-09T00:12:09.777Z,22.70
2023-05-09T00:14:40.869Z,22.60
2023-05-09T00:17:09.870Z,22.60
2023-05-09T00:19:39.430Z,22.60
2023-05-09T00:22:09.522Z,22.60
2023-05-09T00:24:38.577Z,22.60
2023-05-09T00:27:07.194Z,22.60
2023-05-09T00:29:36.312Z,22.60
2023-05-09T00:32:05.254Z,22.60
2023-05-09T00:34:34.325Z,22.60
2023-05-09T00:37:02.848Z,22.60
2023-05-09T00:39:31.696Z,22.60
2023-05-09T00:42:00.251Z,22.60
2023-05-09T00:44:29.346Z,22.60
2023-05-09T00:46:57.897Z,22.60
2023-05-09T00:49:27.024Z,22.60
2023-05-09T00:51:56.896Z,22.60
2023-05-09T00:54:26.378Z,22.60
2023-05-09T00:56:54.984Z,22.60
2023-05-09T00:59:24.371Z,22.60
2023-05-09T01:01:52.897Z,22.60
2023-05-09T01:04:21.904Z,22.60
2023-05-09T01:07:31.353Z,22.60
2023-05-09T01:10:29.565Z,22.60
2023-05-09T01:13:14.658Z,22.60
2023-05-09T01:16:35.523Z,22.60
2023-05-09T01:19:37.056Z,22.60
2023-05-09T01:22:09.165Z,22.60
2023-05-09T01:25:30.668Z,22.60
2023-05-09T01:28:35.933Z,22.60
2023-05-09T01:31:05.161Z,22.60
2023-05-09T01:33:34.537Z,22.60
2023-05-09T01:36:08.325Z,22.60
2023-05-09T01:38:38.752Z,22.60
2023-05-09T01:41:07.389Z,22.60
2023-05-09T01:43:36.369Z,22.60
2023-05-09T01:46:06.271Z,22.60
2023-05-09T01:48:36.763Z,22.60
2023-05-09T01:51:05.902Z,22.60
2023-05-09T01:53:35.010Z,22.60
2023-05-09T01:56:04.906Z,22.60
2023-05-09T01:58:34.207Z,22.60
2023-05-09T02:01:02.821Z,22.60
2023-05-09T02:03:34.231Z,22.60
2023-05-09T02:06:02.791Z,22.50
2023-05-09T02:08:32.311Z,22.50
2023-05-09T02:11:02.130Z,22.60
2023-05-09T02:13:31.376Z,22.50
2023-05-09T02:16:00.090Z,22.50
2023-05-09T02:18:29.697Z,22.60
2023-05-09T02:20:58.360Z,22.60
2023-05-09T02:23:27.207Z,22.60
2023-05-09T02:25:55.784Z,22.60
2023-05-09T02:28:25.750Z,22.50
2023-05-09T02:30:54.308Z,22.50
2023-05-09T02:33:23.620Z,22.60
2023-05-09T02:35:52.189Z,22.50
2023-05-09T02:38:21.696Z,22.60
2023-05-09T02:40:52.267Z,22.60
2023-05-09T02:43:22.343Z,22.50
2023-05-09T02:45:51.138Z,22.50
2023-05-09T02:48:20.160Z,22.60
2023-05-09T02:50:48.700Z,22.50
2023-05-09T02:53:17.522Z,22.50
2023-05-09T02:55:46.288Z,22.60
2023-05-09T02:58:15.499Z,22.50
2023-05-09T03:00:45.707Z,22.50
2023-05-09T03:03:18.321Z,22.50
2023-05-09T03:05:47.783Z,22.50
2023-05-09T03:08:16.620Z,22.50
2023-05-09T03:10:45.873Z,22.50
2023-05-09T03:13:15.521Z,22.50
2023-05-09T03:15:44.109Z,22.50
2023-05-09T03:18:14.997Z,22.50
2023-05-09T03:20:43.581Z,22.50
2023-05-09T03:23:12.403Z,22.50
2023-05-09T03:25:41.105Z,22.50
2023-05-09T03:28:09.965Z,22.40
2023-05-09T03:30:38.852Z,22.50
2023-05-09T03:33:11.689Z,22.50
2023-05-09T03:35:40.247Z,22.40
2023-05-09T03:38:10.150Z,22.50
2023-05-09T03:40:39.215Z,22.50
2023-05-09T03:43:11.803Z,22.40
2023-05-09T03:45:40.686Z,22.50
2023-05-09T03:48:12.159Z,22.50
2023-05-09T03:50:46.613Z,22.40
2023-05-09T03:53:17.565Z,22.50
2023-05-09T03:55:48.697Z,22.50
2023-05-09T03:58:19.812Z,22.50
2023-05-09T04:00:49.130Z,22.50
2023-05-09T04:03:23.573Z,22.40
2023-05-09T04:05:54.584Z,22.40
2023-05-09T04:08:32.527Z,22.40
2023-05-09T04:11:02.479Z,22.50
2023-05-09T04:13:33.210Z,22.50
2023-05-09T04:16:05.782Z,22.40
2023-05-09T04:18:36.807Z,22.40
2023-05-09T04:21:06.486Z,22.50
2023-05-09T04:23:35.410Z,22.40
2023-05-09T04:26:04.611Z,22.40
2023-05-09T04:28:33.831Z,22.40
2023-05-09T04:31:03.277Z,22.40
2023-05-09T04:33:33.587Z,22.40
2023-05-09T04:36:04.571Z,22.40
2023-05-09T04:38:33.674Z,22.40
2023-05-09T04:41:03.402Z,22.40
2023-05-09T04:43:32.866Z,22.30
2023-05-09T04:46:01.468Z,22.30
2023-05-09T04:48:30.568Z,22.30
2023-05-09T04:50:59.176Z,22.30
2023-05-09T04:53:28.586Z,22.20
2023-05-09T04:55:58.753Z,22.30
2023-05-09T04:58:27.738Z,22.30
2023-05-09T05:00:58.125Z,22.30
2023-05-09T05:03:27.009Z,22.20
2023-05-09T05:05:56.589Z,22.30
2023-05-09T05:08:25.695Z,22.30
2023-05-09T05:10:55.133Z,22.30
2023-05-09T05:13:24.848Z,22.30
2023-05-09T05:15:59.075Z,22.30
2023-05-09T05:18:28.107Z,22.30
2023-05-09T05:20:56.753Z,22.30
2023-05-09T05:23:27.385Z,22.30
2023-05-09T05:25:57.279Z,22.40
2023-05-09T05:28:26.954Z,22.30
2023-05-09T05:30:55.694Z,22.40
2023-05-09T05:33:24.846Z,22.30
2023-05-09T05:35:54.193Z,22.40
2023-05-09T05:38:24.085Z,22.30
2023-05-09T05:40:56.408Z,22.40
2023-05-09T05:43:26.728Z,22.30
2023-05-09T05:45:56.011Z,22.40
2023-05-09T05:48:26.934Z,22.40
2023-05-09T05:50:56.698Z,22.40
2023-05-09T05:53:30.817Z,22.40
2023-05-09T05:56:01.277Z,22.40
2023-05-09T05:58:31.025Z,22.40
2023-05-09T06:00:59.887Z,22.40
2023-05-09T06:03:28.829Z,22.40
2023-05-09T06:06:01.801Z,22.40
2023-05-09T06:08:31.122Z,22.50
2023-05-09T06:11:01.877Z,22.50
2023-05-09T06:13:30.842Z,22.50
2023-05-09T06:16:18.725Z,22.40
2023-05-09T06:18:51.506Z,22.40
2023-05-09T06:21:23.116Z,22.40
2023-05-09T06:24:07.724Z,22.40
2023-05-09T06:26:38.957Z,22.40
2023-05-09T06:29:08.140Z,22.40
2023-05-09T06:31:39.273Z,22.40
2023-05-09T06:34:08.714Z,22.40
2023-05-09T06:36:37.309Z,22.40
2023-05-09T06:39:06.230Z,22.40
2023-05-09T06:41:34.796Z,22.40
2023-05-09T06:44:03.642Z,22.40
2023-05-09T06:46:32.261Z,22.40
2023-05-09T06:49:02.969Z,22.40
2023-05-09T06:51:31.685Z,22.40
2023-05-09T06:54:00.649Z,22.40
2023-05-09T06:56:29.185Z,22.40
2023-05-09T06:58:58.195Z,22.50
2023-05-09T07:01:27.190Z,22.50
2023-05-09T07:03:56.287Z,22.50
2023-05-09T07:06:24.837Z,22.50
2023-05-09T07:08:53.690Z,22.50
2023-05-09T07:11:22.542Z,22.50
2023-05-09T07:13:51.428Z,22.50
2023-05-09T07:16:23.127Z,22.50
2023-05-09T07:18:52.116Z,22.60
2023-05-09T07:21:20.740Z,22.60
2023-05-09T07:23:49.701Z,22.50
2023-05-09T07:26:18.271Z,22.50
2023-05-09T07:28:47.180Z,22.50
2023-05-09T07:31:15.814Z,22.60
2023-05-09T07:33:44.714Z,22.60
2023-05-09T07:36:15.287Z,22.50
2023-05-09T07:38:44.179Z,22.60
2023-05-09T07:41:12.773Z,22.60
2023-05-09T07:43:41.885Z,22.60
2023-05-09T07:46:10.543Z,22.60
2023-05-09T07:48:40.026Z,22.60
2023-05-09T07:51:08.626Z,22.60
2023-05-09T07:53:37.760Z,22.60
2023-05-09T07:56:09.701Z,22.60
2023-05-09T07:58:38.630Z,22.60
2023-05-09T08:01:07.145Z,22.70
2023-05-09T08:03:36.192Z,22.70
2023-05-09T08:06:04.798Z,22.60
2023-05-09T08:08:33.777Z,22.70
2023-05-09T08:11:02.386Z,22.60
2023-05-09T08:13:31.213Z,22.70
2023-05-09T08:16:00.948Z,22.60
2023-05-09T08:18:29.903Z,22.70
2023-05-09T08:21:00.020Z,22.70
2023-05-09T08:23:30.687Z,22.70
2023-05-09T08:25:59.402Z,22.70
2023-05-09T08:28:31.053Z,22.60
2023-05-09T08:30:59.587Z,22.70
2023-05-09T08:33:28.504Z,22.70
2023-05-09T08:35:57.058Z,22.70
2023-05-09T08:38:26.233Z,22.70
2023-05-09T08:41:01.171Z,22.70
2023-05-09T08:43:30.100Z,22.70
2023-05-09T08:46:08.811Z,22.70
2023-05-09T08:48:40.709Z,22.70
2023-05-09T08:51:10.576Z,22.70
2023-05-09T08:53:39.375Z,22.70
2023-05-09T08:56:08.319Z,22.80
2023-05-09T08:58:37.108Z,22.80
2023-05-09T09:26:06.083Z,22.70
2023-05-09T09:36:04.955Z,22.80
2023-05-09T09:41:11.302Z,22.80
2023-05-09T09:43:40.135Z,22.90
2023-05-09T09:46:10.222Z,22.80
2023-05-09T09:48:39.804Z,22.90
2023-05-09T09:51:11.620Z,22.90
2023-05-09T09:53:44.028Z,22.90
2023-05-09T09:56:12.480Z,22.90
2023-05-09T09:58:41.485Z,22.90
2023-05-09T10:01:14.269Z,22.90
2023-05-09T10:03:45.427Z,22.90
2023-05-09T10:06:15.402Z,22.90
2023-05-09T10:08:47.617Z,22.90
2023-05-09T10:11:16.547Z,22.90
2023-05-09T10:13:45.489Z,22.90
2023-05-09T10:16:14.126Z,22.90
2023-05-09T10:18:43.322Z,22.90
2023-05-09T10:21:14.158Z,22.90
2023-05-09T10:23:47.080Z,22.90
2023-05-09T10:26:27.700Z,22.80
2023-05-09T10:28:57.692Z,22.70
2023-05-09T10:31:27.598Z,22.80
2023-05-09T10:33:56.595Z,22.80
2023-05-09T10:36:25.237Z,22.80
2023-05-09T10:38:55.237Z,22.80
2023-05-09T10:41:24.286Z,22.80
2023-05-09T10:43:57.019Z,22.80
2023-05-09T18:57:43.762Z,22.70
2023-05-09T19:00:13.160Z,22.60
2023-05-09T19:20:06.297Z,22.60
2023-05-09T19:22:36.645Z,22.50
2023-05-09T19:25:05.500Z,22.50
2023-05-09T19:27:34.101Z,22.50
2023-05-09T19:30:04.603Z,22.40
2023-05-09T19:32:33.216Z,22.40
2023-05-09T19:35:01.581Z,22.40
2023-05-09T19:37:30.742Z,22.40
2023-05-09T19:39:59.101Z,22.40
2023-05-09T19:42:27.722Z,22.30
2023-05-09T19:44:55.983Z,22.30
2023-05-09T19:47:26.041Z,22.30
2023-05-09T19:49:54.905Z,22.30
2023-05-09T19:52:23.603Z,22.30
2023-05-09T19:57:21.951Z,22.20
2023-05-09T19:59:50.293Z,22.10
2023-05-09T20:02:20.033Z,22.10
2023-05-09T20:04:50.241Z,22.10
2023-05-09T20:07:19.031Z,22.10
2023-05-09T20:09:47.327Z,22.00
2023-05-09T20:12:17.167Z,22.00
2023-05-09T20:14:45.459Z,22.00
2023-05-09T20:17:14.084Z,22.00
2023-05-09T20:19:42.372Z,22.00
2023-05-09T20:22:11.432Z,21.90
2023-05-09T20:24:39.719Z,21.90
2023-05-09T20:27:10.493Z,21.90
2023-05-09T20:29:39.913Z,21.80
2023-05-09T20:32:08.689Z,21.80
2023-05-09T20:37:07.030Z,21.70
2023-05-09T20:39:35.367Z,21.70
2023-05-09T20:42:06.151Z,21.70
2023-05-09T20:44:34.392Z,21.70
2023-05-09T20:47:03.146Z,21.70
2023-05-09T20:52:01.357Z,21.70
2023-05-09T20:54:31.344Z,21.70
2023-05-09T21:04:26.860Z,21.70
2023-05-09T21:41:45.772Z,21.60
2023-05-09T21:46:46.952Z,21.70
